sensor_id;sensor_type;location;lat;lon;timestamp;P1;durP1;ratioP1;P2;durP2;ratioP2
7013;SDS011;3547;50.774;12.918;2022-12-07T00:02:46;7.67;;;4.00;;
7013;SDS011;3547;50.774;12.918;2022-12-07T02:11:41;5.23;;;4.10;;
7013;SDS011;3547;50.774;12.918;2022-12-07T02:14:08;5.80;;;4.23;;
7013;SDS011;3547;50.774;12.918;2022-12-07T02:19:53;4.67;;;3.53;;
7013;SDS011;3547;50.774;12.918;2022-12-07T02:29:23;5.07;;;3.40;;
7013;SDS011;3547;50.774;12.918;2022-12-07T03:43:33;3.53;;;2.33;;
7013;SDS011;3547;50.774;12.918;2022-12-07T03:51:39;3.93;;;2.90;;
7013;SDS011;3547;50.774;12.918;2022-12-07T03:54:27;5.30;;;2.67;;
7013;SDS011;3547;50.774;12.918;2022-12-07T03:57:04;4.73;;;3.03;;
7013;SDS011;3547;50.774;12.918;2022-12-07T03:59:31;4.20;;;2.93;;
7013;SDS011;3547;50.774;12.918;2022-12-07T04:02:04;3.03;;;2.30;;
7013;SDS011;3547;50.774;12.918;2022-12-07T04:04:32;2.40;;;1.87;;
7013;SDS011;3547;50.774;12.918;2022-12-07T04:06:59;4.70;;;2.73;;
7013;SDS011;3547;50.774;12.918;2022-12-07T04:09:26;3.23;;;2.20;;
7013;SDS011;3547;50.774;12.918;2022-12-07T04:11:53;3.13;;;2.13;;
7013;SDS011;3547;50.774;12.918;2022-12-07T04:14:20;3.50;;;2.30;;
7013;SDS011;3547;50.774;12.918;2022-12-07T04:16:49;3.53;;;2.13;;
7013;SDS011;3547;50.774;12.918;2022-12-07T04:19:18;3.60;;;2.73;;
7013;SDS011;3547;50.774;12.918;2022-12-07T04:21:47;2.83;;;2.10;;
7013;SDS011;3547;50.774;12.918;2022-12-07T04:24:15;2.87;;;2.17;;
7013;SDS011;3547;50.774;12.918;2022-12-07T04:26:42;3.50;;;2.23;;
7013;SDS011;3547;50.774;12.918;2022-12-07T04:29:09;3.37;;;2.13;;
7013;SDS011;3547;50.774;12.918;2022-12-07T04:31:36;2.50;;;1.87;;
7013;SDS011;3547;50.774;12.918;2022-12-07T04:34:02;3.10;;;2.13;;
7013;SDS011;3547;50.774;12.918;2022-12-07T04:36:29;3.10;;;2.03;;
7013;SDS011;3547;50.774;12.918;2022-12-07T04:38:56;2.70;;;2.20;;
7013;SDS011;3547;50.774;12.918;2022-12-07T04:41:23;2.63;;;1.87;;
7013;SDS011;3547;50.774;12.918;2022-12-07T04:43:56;2.13;;;1.90;;
7013;SDS011;3547;50.774;12.918;2022-12-07T04:46:23;1.97;;;1.77;;
7013;SDS011;3547;50.774;12.918;2022-12-07T04:48:51;2.47;;;1.90;;
7013;SDS011;3547;50.774;12.918;2022-12-07T04:51:19;3.23;;;1.53;;
7013;SDS011;3547;50.774;12.918;2022-12-07T04:53:47;2.40;;;1.97;;
7013;SDS011;3547;50.774;12.918;2022-12-07T04:56:16;2.07;;;1.83;;
7013;SDS011;3547;50.774;12.918;2022-12-07T04:58:43;2.37;;;1.57;;
7013;SDS011;3547;50.774;12.918;2022-12-07T05:01:11;3.57;;;2.33;;
7013;SDS011;3547;50.774;12.918;2022-12-07T05:03:38;2.37;;;1.80;;
7013;SDS011;3547;50.774;12.918;2022-12-07T05:06:05;2.77;;;1.83;;
7013;SDS011;3547;50.774;12.918;2022-12-07T05:08:32;2.53;;;1.97;;
7013;SDS011;3547;50.774;12.918;2022-12-07T05:10:59;5.03;;;1.73;;
7013;SDS011;3547;50.774;12.918;2022-12-07T05:13:26;3.17;;;1.97;;
7013;SDS011;3547;50.774;12.918;2022-12-07T05:15:52;3.67;;;2.13;;
7013;SDS011;3547;50.774;12.918;2022-12-07T05:18:18;2.43;;;1.67;;
7013;SDS011;3547;50.774;12.918;2022-12-07T05:20:45;3.07;;;1.60;;
7013;SDS011;3547;50.774;12.918;2022-12-07T05:23:11;3.03;;;2.07;;
7013;SDS011;3547;50.774;12.918;2022-12-07T05:25:38;2.23;;;1.93;;
7013;SDS011;3547;50.774;12.918;2022-12-07T05:31:27;2.63;;;2.10;;
7013;SDS011;3547;50.774;12.918;2022-12-07T05:33:53;3.53;;;2.40;;
7013;SDS011;3547;50.774;12.918;2022-12-07T05:36:20;4.37;;;2.30;;
7013;SDS011;3547;50.774;12.918;2022-12-07T05:38:46;2.50;;;2.30;;
7013;SDS011;3547;50.774;12.918;2022-12-07T05:41:14;3.17;;;2.27;;
7013;SDS011;3547;50.774;12.918;2022-12-07T05:44:03;3.60;;;2.03;;
7013;SDS011;3547;50.774;12.918;2022-12-07T05:46:30;2.47;;;1.77;;
7013;SDS011;3547;50.774;12.918;2022-12-07T05:48:56;1.83;;;1.53;;
7013;SDS011;3547;50.774;12.918;2022-12-07T05:51:24;2.60;;;2.40;;
7013;SDS011;3547;50.774;12.918;2022-12-07T13:15:54;0.70;;;0.70;;
7013;SDS011;3547;50.774;12.918;2022-12-07T13:27:57;1.03;;;0.93;;
7013;SDS011;3547;50.774;12.918;2022-12-07T13:38:49;2.17;;;1.30;;
7013;SDS011;3547;50.774;12.918;2022-12-07T13:41:17;1.87;;;1.47;;
7013;SDS011;3547;50.774;12.918;2022-12-07T13:43:55;6.43;;;1.17;;
7013;SDS011;3547;50.774;12.918;2022-12-07T13:46:46;1.20;;;1.10;;
7013;SDS011;3547;50.774;12.918;2022-12-07T13:49:37;1.17;;;1.00;;
7013;SDS011;3547;50.774;12.918;2022-12-07T13:52:25;1.40;;;1.20;;
7013;SDS011;3547;50.774;12.918;2022-12-07T13:55:14;1.90;;;1.13;;
7013;SDS011;3547;50.774;12.918;2022-12-07T13:57:44;1.40;;;1.00;;
7013;SDS011;3547;50.774;12.918;2022-12-07T14:00:19;1.60;;;1.20;;
7013;SDS011;3547;50.774;12.918;2022-12-07T14:05:29;2.53;;;0.67;;
7013;SDS011;3547;50.774;12.918;2022-12-07T14:07:57;2.17;;;1.20;;
7013;SDS011;3547;50.774;12.918;2022-12-07T14:10:37;2.13;;;0.97;;
7013;SDS011;3547;50.774;12.918;2022-12-07T14:16:00;2.73;;;1.20;;
7013;SDS011;3547;50.774;12.918;2022-12-07T14:18:47;1.33;;;1.20;;
7013;SDS011;3547;50.774;12.918;2022-12-07T14:24:24;2.93;;;1.30;;
7013;SDS011;3547;50.774;12.918;2022-12-07T14:26:55;1.77;;;1.37;;
7013;SDS011;3547;50.774;12.918;2022-12-07T14:29:31;2.93;;;1.40;;
7013;SDS011;3547;50.774;12.918;2022-12-07T14:32:19;1.23;;;1.03;;
7013;SDS011;3547;50.774;12.918;2022-12-07T14:34:59;1.13;;;1.00;;
7013;SDS011;3547;50.774;12.918;2022-12-07T14:38:10;1.03;;;0.63;;
7013;SDS011;3547;50.774;12.918;2022-12-07T14:46:47;1.20;;;1.10;;
7013;SDS011;3547;50.774;12.918;2022-12-07T14:49:28;1.07;;;0.87;;
7013;SDS011;3547;50.774;12.918;2022-12-07T14:57:32;1.63;;;1.00;;
7013;SDS011;3547;50.774;12.918;2022-12-07T15:02:48;0.90;;;0.77;;
7013;SDS011;3547;50.774;12.918;2022-12-07T15:05:23;2.10;;;1.27;;
7013;SDS011;3547;50.774;12.918;2022-12-07T15:07:50;4.10;;;1.27;;
7013;SDS011;3547;50.774;12.918;2022-12-07T15:10:33;0.87;;;0.80;;
7013;SDS011;3547;50.774;12.918;2022-12-07T15:13:06;0.90;;;0.80;;
7013;SDS011;3547;50.774;12.918;2022-12-07T15:15:52;1.47;;;0.80;;
7013;SDS011;3547;50.774;12.918;2022-12-07T15:18:47;1.23;;;1.10;;
7013;SDS011;3547;50.774;12.918;2022-12-07T15:21:13;0.80;;;0.80;;
7013;SDS011;3547;50.774;12.918;2022-12-07T15:23:46;5.13;;;1.50;;
7013;SDS011;3547;50.774;12.918;2022-12-07T15:41:53;1.17;;;0.93;;
7013;SDS011;3547;50.774;12.918;2022-12-07T15:44:20;1.37;;;0.90;;
7013;SDS011;3547;50.774;12.918;2022-12-07T15:47:44;2.47;;;1.00;;
7013;SDS011;3547;50.774;12.918;2022-12-07T15:50:11;1.23;;;1.10;;
7013;SDS011;3547;50.774;12.918;2022-12-07T16:01:21;0.87;;;0.87;;
7013;SDS011;3547;50.774;12.918;2022-12-07T16:03:51;0.77;;;0.73;;
7013;SDS011;3547;50.774;12.918;2022-12-07T16:06:22;0.57;;;0.57;;
7013;SDS011;3547;50.774;12.918;2022-12-07T16:08:50;1.10;;;0.97;;
7013;SDS011;3547;50.774;12.918;2022-12-07T16:11:16;3.50;;;1.17;;
7013;SDS011;3547;50.774;12.918;2022-12-07T16:13:42;2.47;;;1.30;;
7013;SDS011;3547;50.774;12.918;2022-12-07T16:16:14;1.97;;;1.03;;
7013;SDS011;3547;50.774;12.918;2022-12-07T16:18:42;1.90;;;0.90;;
7013;SDS011;3547;50.774;12.918;2022-12-07T16:21:10;3.17;;;0.93;;
7013;SDS011;3547;50.774;12.918;2022-12-07T16:23:37;9.20;;;1.53;;
7013;SDS011;3547;50.774;12.918;2022-12-07T16:26:08;2.50;;;1.40;;
7013;SDS011;3547;50.774;12.918;2022-12-07T16:28:42;1.40;;;1.20;;
7013;SDS011;3547;50.774;12.918;2022-12-07T16:31:12;0.60;;;0.60;;
7013;SDS011;3547;50.774;12.918;2022-12-07T16:33:40;1.10;;;0.83;;
7013;SDS011;3547;50.774;12.918;2022-12-07T16:36:08;0.70;;;0.70;;
7013;SDS011;3547;50.774;12.918;2022-12-07T16:38:36;0.70;;;0.70;;
7013;SDS011;3547;50.774;12.918;2022-12-07T16:41:06;1.83;;;0.97;;
7013;SDS011;3547;50.774;12.918;2022-12-07T16:43:43;1.40;;;0.80;;
7013;SDS011;3547;50.774;12.918;2022-12-07T16:46:11;1.50;;;0.70;;
7013;SDS011;3547;50.774;12.918;2022-12-07T16:48:50;0.50;;;0.50;;
7013;SDS011;3547;50.774;12.918;2022-12-07T16:51:16;1.93;;;0.70;;
7013;SDS011;3547;50.774;12.918;2022-12-07T16:53:47;0.90;;;0.90;;
7013;SDS011;3547;50.774;12.918;2022-12-07T16:56:16;0.80;;;0.80;;
7013;SDS011;3547;50.774;12.918;2022-12-07T16:58:43;0.70;;;0.70;;
7013;SDS011;3547;50.774;12.918;2022-12-07T17:01:10;0.67;;;0.67;;
7013;SDS011;3547;50.774;12.918;2022-12-07T17:03:51;1.57;;;1.47;;
7013;SDS011;3547;50.774;12.918;2022-12-07T17:06:21;0.70;;;0.70;;
7013;SDS011;3547;50.774;12.918;2022-12-07T17:08:50;0.73;;;0.60;;
7013;SDS011;3547;50.774;12.918;2022-12-07T17:11:21;0.97;;;0.90;;
7013;SDS011;3547;50.774;12.918;2022-12-07T17:13:50;2.10;;;0.87;;
7013;SDS011;3547;50.774;12.918;2022-12-07T17:16:36;1.20;;;1.10;;
7013;SDS011;3547;50.774;12.918;2022-12-07T17:19:11;1.87;;;1.10;;
7013;SDS011;3547;50.774;12.918;2022-12-07T17:21:40;1.00;;;0.90;;
7013;SDS011;3547;50.774;12.918;2022-12-07T17:24:08;2.30;;;0.80;;
7013;SDS011;3547;50.774;12.918;2022-12-07T17:26:36;0.73;;;0.73;;
7013;SDS011;3547;50.774;12.918;2022-12-07T17:29:04;1.13;;;0.77;;
7013;SDS011;3547;50.774;12.918;2022-12-07T17:31:31;3.23;;;1.10;;
7013;SDS011;3547;50.774;12.918;2022-12-07T17:33:58;1.00;;;1.00;;
7013;SDS011;3547;50.774;12.918;2022-12-07T17:36:26;1.30;;;1.20;;
7013;SDS011;3547;50.774;12.918;2022-12-07T17:38:54;2.13;;;1.50;;
7013;SDS011;3547;50.774;12.918;2022-12-07T17:41:25;1.33;;;1.23;;
7013;SDS011;3547;50.774;12.918;2022-12-07T17:44:16;1.57;;;0.93;;
7013;SDS011;3547;50.774;12.918;2022-12-07T17:46:46;0.50;;;0.50;;
7013;SDS011;3547;50.774;12.918;2022-12-07T17:49:13;1.03;;;0.93;;
7013;SDS011;3547;50.774;12.918;2022-12-07T17:51:40;2.93;;;1.10;;
7013;SDS011;3547;50.774;12.918;2022-12-07T17:54:26;1.47;;;1.10;;
7013;SDS011;3547;50.774;12.918;2022-12-07T17:56:53;1.03;;;0.93;;
7013;SDS011;3547;50.774;12.918;2022-12-07T17:59:19;1.60;;;1.27;;
7013;SDS011;3547;50.774;12.918;2022-12-07T18:01:46;4.90;;;1.50;;
7013;SDS011;3547;50.774;12.918;2022-12-07T18:04:12;1.30;;;1.17;;
7013;SDS011;3547;50.774;12.918;2022-12-07T18:06:38;1.20;;;1.10;;
7013;SDS011;3547;50.774;12.918;2022-12-07T18:14:23;1.20;;;1.07;;
7013;SDS011;3547;50.774;12.918;2022-12-07T18:16:49;1.57;;;1.20;;
7013;SDS011;3547;50.774;12.918;2022-12-07T18:19:16;1.60;;;1.43;;
7013;SDS011;3547;50.774;12.918;2022-12-07T18:21:43;2.37;;;1.40;;
7013;SDS011;3547;50.774;12.918;2022-12-07T18:24:10;0.80;;;0.80;;
7013;SDS011;3547;50.774;12.918;2022-12-07T18:26:38;2.20;;;1.40;;
7013;SDS011;3547;50.774;12.918;2022-12-07T18:29:05;2.20;;;1.30;;
7013;SDS011;3547;50.774;12.918;2022-12-07T18:31:33;1.37;;;0.67;;
7013;SDS011;3547;50.774;12.918;2022-12-07T18:34:04;2.27;;;2.00;;
7013;SDS011;3547;50.774;12.918;2022-12-07T18:36:36;3.77;;;1.47;;
7013;SDS011;3547;50.774;12.918;2022-12-07T18:39:04;2.03;;;1.50;;
7013;SDS011;3547;50.774;12.918;2022-12-07T18:41:31;1.83;;;1.43;;
7013;SDS011;3547;50.774;12.918;2022-12-07T18:43:57;0.80;;;0.80;;
7013;SDS011;3547;50.774;12.918;2022-12-07T18:46:24;4.03;;;2.00;;
7013;SDS011;3547;50.774;12.918;2022-12-07T18:48:51;2.30;;;1.33;;
7013;SDS011;3547;50.774;12.918;2022-12-07T18:51:28;2.33;;;1.60;;
7013;SDS011;3547;50.774;12.918;2022-12-07T18:53:55;1.97;;;1.47;;
7013;SDS011;3547;50.774;12.918;2022-12-07T18:56:23;5.33;;;2.00;;
7013;SDS011;3547;50.774;12.918;2022-12-07T18:58:54;2.87;;;2.20;;
7013;SDS011;3547;50.774;12.918;2022-12-07T19:01:41;5.33;;;1.77;;
7013;SDS011;3547;50.774;12.918;2022-12-07T19:04:09;4.80;;;1.80;;
7013;SDS011;3547;50.774;12.918;2022-12-07T19:06:35;3.33;;;1.70;;
7013;SDS011;3547;50.774;12.918;2022-12-07T19:09:03;1.77;;;1.50;;
7013;SDS011;3547;50.774;12.918;2022-12-07T19:11:30;2.77;;;2.00;;
7013;SDS011;3547;50.774;12.918;2022-12-07T19:16:51;2.40;;;1.47;;
7013;SDS011;3547;50.774;12.918;2022-12-07T19:19:20;2.90;;;1.77;;
7013;SDS011;3547;50.774;12.918;2022-12-07T19:21:47;7.23;;;1.60;;
7013;SDS011;3547;50.774;12.918;2022-12-07T19:24:14;2.30;;;1.57;;
7013;SDS011;3547;50.774;12.918;2022-12-07T19:26:44;2.07;;;1.50;;
7013;SDS011;3547;50.774;12.918;2022-12-07T19:29:15;1.73;;;1.40;;
7013;SDS011;3547;50.774;12.918;2022-12-07T19:31:41;2.07;;;1.23;;
7013;SDS011;3547;50.774;12.918;2022-12-07T19:34:10;2.33;;;1.77;;
7013;SDS011;3547;50.774;12.918;2022-12-07T19:36:38;1.30;;;1.20;;
7013;SDS011;3547;50.774;12.918;2022-12-07T19:39:05;1.27;;;1.17;;
7013;SDS011;3547;50.774;12.918;2022-12-07T19:41:35;3.70;;;1.60;;
7013;SDS011;3547;50.774;12.918;2022-12-07T19:47:26;1.83;;;1.33;;
7013;SDS011;3547;50.774;12.918;2022-12-07T19:49:52;1.90;;;1.47;;
7013;SDS011;3547;50.774;12.918;2022-12-07T19:52:26;1.87;;;1.37;;
7013;SDS011;3547;50.774;12.918;2022-12-07T19:55:04;2.53;;;1.70;;
7013;SDS011;3547;50.774;12.918;2022-12-07T19:57:35;1.77;;;1.20;;
7013;SDS011;3547;50.774;12.918;2022-12-07T20:00:02;2.10;;;1.83;;
7013;SDS011;3547;50.774;12.918;2022-12-07T20:02:29;2.00;;;1.73;;
7013;SDS011;3547;50.774;12.918;2022-12-07T20:04:55;1.30;;;1.20;;
7013;SDS011;3547;50.774;12.918;2022-12-07T20:07:24;5.27;;;2.13;;
7013;SDS011;3547;50.774;12.918;2022-12-07T20:09:50;4.60;;;2.07;;
7013;SDS011;3547;50.774;12.918;2022-12-07T20:12:16;2.07;;;1.70;;
7013;SDS011;3547;50.774;12.918;2022-12-07T20:15:04;3.50;;;1.40;;
7013;SDS011;3547;50.774;12.918;2022-12-07T20:17:31;1.83;;;1.43;;
7013;SDS011;3547;50.774;12.918;2022-12-07T20:20:01;1.60;;;1.50;;
7013;SDS011;3547;50.774;12.918;2022-12-07T20:22:34;1.50;;;1.40;;
7013;SDS011;3547;50.774;12.918;2022-12-07T20:25:03;1.97;;;1.53;;
7013;SDS011;3547;50.774;12.918;2022-12-07T20:27:30;2.40;;;1.67;;
7013;SDS011;3547;50.774;12.918;2022-12-07T20:29:57;4.00;;;1.80;;
7013;SDS011;3547;50.774;12.918;2022-12-07T20:32:23;1.47;;;1.37;;
7013;SDS011;3547;50.774;12.918;2022-12-07T20:34:49;2.23;;;1.43;;
7013;SDS011;3547;50.774;12.918;2022-12-07T20:37:15;3.67;;;1.67;;
7013;SDS011;3547;50.774;12.918;2022-12-07T20:39:42;2.13;;;1.80;;
7013;SDS011;3547;50.774;12.918;2022-12-07T20:42:09;4.23;;;1.80;;
7013;SDS011;3547;50.774;12.918;2022-12-07T20:44:54;1.50;;;1.40;;
7013;SDS011;3547;50.774;12.918;2022-12-07T20:47:20;2.03;;;1.83;;
7013;SDS011;3547;50.774;12.918;2022-12-07T20:49:46;2.87;;;1.97;;
7013;SDS011;3547;50.774;12.918;2022-12-07T20:52:13;2.67;;;1.97;;
7013;SDS011;3547;50.774;12.918;2022-12-07T20:54:39;2.67;;;2.10;;
7013;SDS011;3547;50.774;12.918;2022-12-07T20:57:05;3.17;;;1.90;;
7013;SDS011;3547;50.774;12.918;2022-12-07T20:59:32;7.23;;;2.13;;
7013;SDS011;3547;50.774;12.918;2022-12-07T21:01:58;2.30;;;1.73;;
7013;SDS011;3547;50.774;12.918;2022-12-07T21:04:24;3.13;;;1.80;;
7013;SDS011;3547;50.774;12.918;2022-12-07T21:06:51;3.17;;;1.80;;
7013;SDS011;3547;50.774;12.918;2022-12-07T21:09:17;2.23;;;1.83;;
7013;SDS011;3547;50.774;12.918;2022-12-07T21:11:44;2.60;;;2.27;;
7013;SDS011;3547;50.774;12.918;2022-12-07T21:14:11;3.27;;;2.47;;
7013;SDS011;3547;50.774;12.918;2022-12-07T21:16:37;5.00;;;2.67;;
7013;SDS011;3547;50.774;12.918;2022-12-07T21:19:03;2.53;;;2.33;;
7013;SDS011;3547;50.774;12.918;2022-12-07T21:21:31;2.63;;;2.20;;
7013;SDS011;3547;50.774;12.918;2022-12-07T21:23:58;3.77;;;2.37;;
7013;SDS011;3547;50.774;12.918;2022-12-07T21:26:25;4.77;;;2.57;;
7013;SDS011;3547;50.774;12.918;2022-12-07T21:28:52;3.37;;;2.33;;
7013;SDS011;3547;50.774;12.918;2022-12-07T21:31:19;2.40;;;2.00;;
7013;SDS011;3547;50.774;12.918;2022-12-07T21:33:45;4.33;;;2.67;;
7013;SDS011;3547;50.774;12.918;2022-12-07T21:36:13;4.27;;;2.80;;
7013;SDS011;3547;50.774;12.918;2022-12-07T21:38:44;2.90;;;2.33;;
7013;SDS011;3547;50.774;12.918;2022-12-07T21:41:18;3.57;;;2.30;;
7013;SDS011;3547;50.774;12.918;2022-12-07T21:43:45;3.10;;;2.13;;
7013;SDS011;3547;50.774;12.918;2022-12-07T21:46:13;3.20;;;2.77;;
7013;SDS011;3547;50.774;12.918;2022-12-07T21:48:39;3.93;;;2.20;;
7013;SDS011;3547;50.774;12.918;2022-12-07T21:51:09;3.73;;;2.10;;
7013;SDS011;3547;50.774;12.918;2022-12-07T21:53:37;2.73;;;1.50;;
7013;SDS011;3547;50.774;12.918;2022-12-07T21:56:20;2.37;;;2.13;;
7013;SDS011;3547;50.774;12.918;2022-12-07T21:58:50;2.50;;;2.30;;
7013;SDS011;3547;50.774;12.918;2022-12-07T22:01:21;3.50;;;2.03;;
7013;SDS011;3547;50.774;12.918;2022-12-07T22:03:50;3.03;;;1.97;;
7013;SDS011;3547;50.774;12.918;2022-12-07T22:06:19;1.87;;;1.60;;
7013;SDS011;3547;50.774;12.918;2022-12-07T22:08:48;3.60;;;2.47;;
7013;SDS011;3547;50.774;12.918;2022-12-07T22:11:14;4.23;;;2.43;;
7013;SDS011;3547;50.774;12.918;2022-12-07T22:13:41;3.40;;;2.13;;
7013;SDS011;3547;50.774;12.918;2022-12-07T22:16:27;3.17;;;2.27;;
7013;SDS011;3547;50.774;12.918;2022-12-07T22:18:54;4.23;;;2.47;;
7013;SDS011;3547;50.774;12.918;2022-12-07T22:21:24;2.33;;;2.13;;
7013;SDS011;3547;50.774;12.918;2022-12-07T22:23:50;3.67;;;2.60;;
7013;SDS011;3547;50.774;12.918;2022-12-07T22:26:16;2.07;;;1.83;;
7013;SDS011;3547;50.774;12.918;2022-12-07T22:28:43;4.37;;;2.27;;
7013;SDS011;3547;50.774;12.918;2022-12-07T22:31:11;3.47;;;2.33;;
7013;SDS011;3547;50.774;12.918;2022-12-07T22:33:39;2.70;;;2.17;;
7013;SDS011;3547;50.774;12.918;2022-12-07T22:36:05;2.63;;;2.07;;
7013;SDS011;3547;50.774;12.918;2022-12-07T22:38:32;3.70;;;2.20;;
7013;SDS011;3547;50.774;12.918;2022-12-07T22:40:59;5.97;;;2.43;;
7013;SDS011;3547;50.774;12.918;2022-12-07T22:43:32;5.30;;;2.77;;
7013;SDS011;3547;50.774;12.918;2022-12-07T22:45:58;3.60;;;2.83;;
7013;SDS011;3547;50.774;12.918;2022-12-07T22:48:25;2.53;;;1.77;;
7013;SDS011;3547;50.774;12.918;2022-12-07T22:50:53;3.37;;;2.50;;
7013;SDS011;3547;50.774;12.918;2022-12-07T22:53:21;3.30;;;2.50;;
7013;SDS011;3547;50.774;12.918;2022-12-07T22:55:49;3.70;;;2.63;;
7013;SDS011;3547;50.774;12.918;2022-12-07T22:58:16;3.63;;;2.50;;
7013;SDS011;3547;50.774;12.918;2022-12-07T23:00:43;13.70;;;3.13;;
7013;SDS011;3547;50.774;12.918;2022-12-07T23:03:09;6.53;;;3.10;;
7013;SDS011;3547;50.774;12.918;2022-12-07T23:05:43;3.23;;;2.90;;
7013;SDS011;3547;50.774;12.918;2022-12-07T23:08:10;2.77;;;2.33;;
7013;SDS011;3547;50.774;12.918;2022-12-07T23:10:41;4.00;;;2.63;;
7013;SDS011;3547;50.774;12.918;2022-12-07T23:13:10;3.40;;;2.77;;
7013;SDS011;3547;50.774;12.918;2022-12-07T23:15:55;3.00;;;2.47;;
7013;SDS011;3547;50.774;12.918;2022-12-07T23:18:22;4.63;;;2.37;;
7013;SDS011;3547;50.774;12.918;2022-12-07T23:20:48;3.70;;;2.60;;
7013;SDS011;3547;50.774;12.918;2022-12-07T23:23:14;3.20;;;2.67;;
7013;SDS011;3547;50.774;12.918;2022-12-07T23:25:41;4.63;;;3.47;;
7013;SDS011;3547;50.774;12.918;2022-12-07T23:28:07;4.87;;;2.77;;
7013;SDS011;3547;50.774;12.918;2022-12-07T23:30:34;4.10;;;2.47;;
7013;SDS011;3547;50.774;12.918;2022-12-07T23:33:00;4.13;;;2.50;;
7013;SDS011;3547;50.774;12.918;2022-12-07T23:35:26;3.53;;;2.70;;
7013;SDS011;3547;50.774;12.918;2022-12-07T23:37:53;3.73;;;3.13;;
7013;SDS011;3547;50.774;12.918;2022-12-07T23:40:19;4.07;;;3.00;;
7013;SDS011;3547;50.774;12.918;2022-12-07T23:42:45;3.27;;;2.87;;
7013;SDS011;3547;50.774;12.918;2022-12-07T23:45:12;3.93;;;2.67;;
7013;SDS011;3547;50.774;12.918;2022-12-07T23:47:38;3.97;;;3.00;;
7013;SDS011;3547;50.774;12.918;2022-12-07T23:50:06;5.13;;;2.90;;
7013;SDS011;3547;50.774;12.918;2022-12-07T23:52:33;3.93;;;2.63;;
7013;SDS011;3547;50.774;12.918;2022-12-07T23:55:11;3.97;;;2.80;;
7013;SDS011;3547;50.774;12.918;2022-12-07T23:57:37;4.80;;;3.00;;
